ESMS/MMX METAR and TAF weather

Enter ICAO airport designator
Station Type Date Time Source
ESMS METAR 2018/04/26 14:50 UTC NOAA

ESMS 261450Z 28007KT 9999 FEW014 BKN040CB 07/05 Q1008


Station Type Date Time Source
ESMS Decoded METAR 2018/04/26 14:50 UTC NOAA

Malmo / Sturup, Sweden (ESMS) 55-33N 013-22E
Apr 26, 2018 - 10:50 AM EDT / 2018.04.26 1450 UTC
Wind: from the W (280 degrees) at 8 MPH (7 KT):0
Visibility: greater than 7 mile(s):0
Sky conditions: mostly cloudy
Weather: Cumulonimbus clouds observed
Temperature: 44 F (7 C)
Dew Point: 41 F (5 C)
Relative Humidity: 87%
Pressure (altimeter): 29.77 in. Hg (1008 hPa)
ob: ESMS 261450Z 28007KT 9999 FEW014 BKN040CB 07/05 Q1008
cycle: 15

Station Type Date Time Source
ESMS TAF 2018/04/26 12:33 UTC NOAA

TAF ESMS 261055Z 2612/2712 24012KT 9999 SCT025
TEMPO 2612/2619 25015G25KT 4000 SHRA TSGS SCT020CB
TEMPO 2710/2712 SHRA FEW020CB


Example: see airport list